createdAt,value
2023-04-02T00:00:28.297Z,1006.33
2023-04-02T00:00:59.774Z,1006.33
2023-04-02T00:01:26.055Z,1006.53
2023-04-02T00:01:57.871Z,1006.53
2023-04-02T00:02:28.705Z,1006.43
2023-04-02T00:02:59.812Z,1006.43
2023-04-02T00:03:30.219Z,1006.43
2023-04-02T00:04:02.029Z,1006.43
2023-04-02T00:04:33.400Z,1006.23
2023-04-02T00:05:04.361Z,1006.53
2023-04-02T00:05:34.767Z,1006.53
2023-04-02T00:06:05.721Z,1006.53
2023-04-02T00:06:36.264Z,1006.53
2023-04-02T00:07:07.879Z,1006.33
2023-04-02T00:07:38.064Z,1006.33
2023-04-02T00:08:09.842Z,1006.53
2023-04-02T00:08:40.536Z,1006.53
2023-04-02T00:09:11.726Z,1006.43
2023-04-02T00:09:43.065Z,1006.43
2023-04-02T00:10:13.687Z,1006.43
2023-04-02T00:10:44.355Z,1006.43
2023-04-02T00:11:16.422Z,1006.53
2023-04-02T00:11:46.157Z,1006.53
2023-04-02T00:12:17.675Z,1006.53
2023-04-02T00:12:48.306Z,1006.53
2023-04-02T00:13:19.770Z,1006.53
2023-04-02T00:13:50.087Z,1006.53
2023-04-02T00:14:21.702Z,1006.53
2023-04-02T00:14:53.049Z,1006.53
2023-04-02T00:15:24.872Z,1006.53
2023-04-02T00:15:54.023Z,1006.53
2023-04-02T00:16:25.722Z,1006.64
2023-04-02T00:16:56.041Z,1006.64
2023-04-02T00:17:27.950Z,1006.23
2023-04-02T00:17:59.252Z,1006.23
2023-04-02T00:18:29.805Z,1006.53
2023-04-02T00:19:00.238Z,1006.53
2023-04-02T00:19:31.794Z,1006.43
2023-04-02T00:20:10.623Z,1006.43
2023-04-02T00:20:40.310Z,1006.33
2023-04-02T00:21:04.375Z,1006.53
2023-04-02T00:21:38.237Z,1006.53
2023-04-02T00:22:06.426Z,1006.64
2023-04-02T00:22:37.710Z,1006.64
2023-04-02T00:23:08.024Z,1006.43
2023-04-02T00:23:39.705Z,1006.43
2023-04-02T00:24:10.010Z,1006.33
2023-04-02T00:24:42.402Z,1006.33
2023-04-02T00:25:13.533Z,1006.43
2023-04-02T00:25:43.906Z,1006.43
2023-04-02T00:26:14.073Z,1006.53
2023-04-02T00:26:45.741Z,1006.53
2023-04-02T00:27:16.074Z,1006.53
2023-04-02T00:27:47.940Z,1006.53
2023-04-02T00:28:18.014Z,1006.53
2023-04-02T00:28:49.935Z,1006.53
2023-04-02T00:29:20.046Z,1006.53
2023-04-02T00:29:52.769Z,1006.53
2023-04-02T00:30:24.278Z,1006.33
2023-04-02T00:30:53.778Z,1006.33
2023-04-02T00:31:24.959Z,1006.43
2023-04-02T00:31:55.751Z,1006.43
2023-04-02T00:32:26.092Z,1006.53
2023-04-02T00:32:57.743Z,1006.53
2023-04-02T00:33:28.164Z,1006.74
2023-04-02T00:33:59.710Z,1006.74
2023-04-02T00:34:30.038Z,1006.53
2023-04-02T00:35:02.733Z,1006.53
2023-04-02T00:35:33.332Z,1006.64
2023-04-02T00:36:03.843Z,1006.53
2023-04-02T00:36:34.108Z,1006.53
2023-04-02T00:37:05.727Z,1006.74
2023-04-02T00:37:36.118Z,1006.74
2023-04-02T00:38:08.383Z,1006.53
2023-04-02T00:38:38.062Z,1006.53
2023-04-02T00:39:09.719Z,1006.53
2023-04-02T00:39:40.029Z,1006.53
2023-04-02T00:40:12.217Z,1006.74
2023-04-02T00:40:47.063Z,1006.74
2023-04-02T00:41:13.977Z,1006.53
2023-04-02T00:41:44.331Z,1006.53
2023-04-02T00:42:15.768Z,1006.43
2023-04-02T00:42:46.002Z,1006.43
2023-04-02T00:43:17.687Z,1006.53
2023-04-02T00:43:47.998Z,1006.53
2023-04-02T00:44:19.716Z,1006.53
2023-04-02T00:44:50.051Z,1006.53
2023-04-02T00:45:22.784Z,1006.64
2023-04-02T00:45:53.177Z,1006.64
2023-04-02T00:46:23.869Z,1006.53
2023-04-02T00:46:54.002Z,1006.53
2023-04-02T00:47:25.727Z,1006.43
2023-04-02T00:47:56.049Z,1006.43
2023-04-02T00:48:27.818Z,1006.43
2023-04-02T00:48:58.686Z,1006.43
2023-04-02T00:49:29.691Z,1006.53
2023-04-02T00:50:00.107Z,1006.53
2023-04-02T00:50:32.288Z,1006.53
2023-04-02T00:51:10.567Z,1006.53
2023-04-02T00:51:34.198Z,1006.43
2023-04-02T00:52:04.373Z,1006.53
2023-04-02T00:52:36.746Z,1006.53
2023-04-02T00:53:05.988Z,1006.64
2023-04-02T00:53:37.750Z,1006.64
2023-04-02T00:54:08.106Z,1006.53
2023-04-02T00:54:39.728Z,1006.53
2023-04-02T00:55:10.692Z,1006.43
2023-04-02T00:55:41.725Z,1006.43
2023-04-02T00:56:13.447Z,1006.64
2023-04-02T00:56:43.847Z,1006.64
2023-04-02T00:57:14.085Z,1006.74
2023-04-02T00:57:46.028Z,1006.74
2023-04-02T00:58:15.986Z,1006.43
2023-04-02T00:58:47.726Z,1006.43
2023-04-02T00:59:17.983Z,1006.53
2023-04-02T00:59:49.867Z,1006.53
2023-04-02T01:00:21.398Z,1006.53
2023-04-02T01:00:53.111Z,1006.53
2023-04-02T01:01:23.044Z,1006.64
2023-04-02T01:01:53.729Z,1006.64
2023-04-02T01:02:24.560Z,1006.64
2023-04-02T01:02:55.798Z,1006.64
2023-04-02T01:03:26.101Z,1006.53
2023-04-02T01:03:57.867Z,1006.53
2023-04-02T01:04:28.210Z,1006.74
2023-04-02T01:05:00.331Z,1006.74
2023-04-02T01:05:30.485Z,1006.43
2023-04-02T01:06:01.771Z,1006.43
2023-04-02T01:06:32.996Z,1006.43
2023-04-02T01:07:04.013Z,1006.43
2023-04-02T01:07:34.042Z,1006.43
2023-04-02T01:08:05.719Z,1006.43
2023-04-02T01:08:35.995Z,1006.43
2023-04-02T01:09:07.720Z,1006.53
2023-04-02T01:09:38.055Z,1006.53
2023-04-02T01:10:10.205Z,1006.43
2023-04-02T01:10:39.994Z,1006.43
2023-04-02T01:11:11.122Z,1006.53
2023-04-02T01:11:43.856Z,1006.53
2023-04-02T01:12:13.020Z,1006.43
2023-04-02T01:12:45.011Z,1006.43
2023-04-02T01:13:15.458Z,1006.74
2023-04-02T01:13:46.690Z,1006.74
2023-04-02T01:14:17.000Z,1006.64
2023-04-02T01:14:48.797Z,1006.64
2023-04-02T01:15:20.192Z,1006.64
2023-04-02T01:15:50.905Z,1006.64
2023-04-02T01:16:21.025Z,1006.64
2023-04-02T01:16:53.892Z,1006.64
2023-04-02T01:17:23.059Z,1006.64
2023-04-02T01:17:54.864Z,1006.64
2023-04-02T01:18:25.084Z,1006.53
2023-04-02T01:18:56.685Z,1006.53
2023-04-02T01:19:26.976Z,1006.64
2023-04-02T01:19:58.858Z,1006.64
2023-04-02T01:20:39.378Z,1006.53
2023-04-02T01:21:00.960Z,1006.53
2023-04-02T01:21:31.144Z,1006.74
2023-04-02T01:22:09.397Z,1006.74
2023-04-02T01:22:33.723Z,1006.33
2023-04-02T01:23:04.336Z,1006.74
2023-04-02T01:23:36.597Z,1006.74
2023-04-02T01:24:06.048Z,1006.53
2023-04-02T01:24:37.718Z,1006.53
2023-04-02T01:25:09.158Z,1006.74
2023-04-02T01:25:39.719Z,1006.74
2023-04-02T01:26:10.020Z,1006.53
2023-04-02T01:26:41.768Z,1006.53
2023-04-02T01:27:12.973Z,1006.64
2023-04-02T01:27:43.735Z,1006.64
2023-04-02T01:28:14.109Z,1006.64
2023-04-02T01:28:46.850Z,1006.64
2023-04-02T01:29:16.508Z,1006.43
2023-04-02T01:29:47.674Z,1006.43
2023-04-02T01:30:19.493Z,1006.53
2023-04-02T01:30:49.776Z,1006.53
2023-04-02T01:31:20.037Z,1006.53
2023-04-02T01:31:52.371Z,1006.53
2023-04-02T01:32:23.230Z,1006.64
2023-04-02T01:32:53.761Z,1006.64
2023-04-02T01:33:24.675Z,1006.64
2023-04-02T01:33:55.788Z,1006.64
2023-04-02T01:34:26.831Z,1006.43
2023-04-02T01:34:57.721Z,1006.43
2023-04-02T01:35:28.933Z,1006.53
2023-04-02T01:35:59.693Z,1006.53
2023-04-02T01:36:30.002Z,1006.53
2023-04-02T01:37:01.793Z,1006.53
2023-04-02T01:37:33.003Z,1006.33
2023-04-02T01:38:03.978Z,1006.53
2023-04-02T01:38:34.064Z,1006.53
2023-04-02T01:39:05.659Z,1006.33
2023-04-02T01:39:35.974Z,1006.33
2023-04-02T01:40:08.200Z,1006.64
2023-04-02T01:40:40.215Z,1006.64
2023-04-02T01:41:09.675Z,1006.74
2023-04-02T01:41:39.966Z,1006.74
2023-04-02T01:42:11.703Z,1006.53
2023-04-02T01:42:43.003Z,1006.53
2023-04-02T01:43:13.681Z,1006.64
2023-04-02T01:43:44.279Z,1006.64
2023-04-02T01:44:15.717Z,1006.53
2023-04-02T01:44:46.102Z,1006.53
2023-04-02T01:45:19.474Z,1006.74
2023-04-02T01:45:48.081Z,1006.74
2023-04-02T01:46:19.718Z,1006.64
2023-04-02T01:46:50.077Z,1006.64
2023-04-02T01:47:21.972Z,1006.64
2023-04-02T01:47:53.017Z,1006.64
2023-04-02T01:48:23.702Z,1006.64
2023-04-02T01:48:54.046Z,1006.64
2023-04-02T01:49:25.686Z,1006.84
2023-04-02T01:49:56.006Z,1006.84
2023-04-02T01:50:28.521Z,1006.64
2023-04-02T01:50:58.198Z,1006.64
2023-04-02T01:51:29.750Z,1006.43
2023-04-02T01:52:00.150Z,1006.43
2023-04-02T01:52:31.722Z,1006.53
2023-04-02T01:53:09.996Z,1006.53
2023-04-02T01:53:33.789Z,1006.53
2023-04-02T01:54:04.353Z,1006.94
2023-04-02T01:54:35.729Z,1006.94
2023-04-02T01:55:06.714Z,1006.64
2023-04-02T01:55:37.878Z,1006.64
2023-04-02T01:56:08.690Z,1006.74
2023-04-02T01:56:39.721Z,1006.74
2023-04-02T01:57:10.099Z,1006.64
2023-04-02T01:57:41.705Z,1006.64
2023-04-02T01:58:13.007Z,1006.64
2023-04-02T01:58:44.640Z,1006.64
2023-04-02T01:59:13.960Z,1006.74
2023-04-02T01:59:45.702Z,1006.74
2023-04-02T02:00:18.964Z,1006.74
2023-04-02T02:00:55.087Z,1006.74
2023-04-02T02:01:18.457Z,1006.84
2023-04-02T02:01:49.760Z,1006.84
2023-04-02T02:02:20.119Z,1006.64
2023-04-02T02:02:51.754Z,1006.64
2023-04-02T02:03:22.980Z,1006.64
2023-04-02T02:03:53.789Z,1006.64
2023-04-02T02:04:24.308Z,1006.64
2023-04-02T02:04:55.860Z,1006.64
2023-04-02T02:05:27.479Z,1006.74
2023-04-02T02:05:58.095Z,1006.74
2023-04-02T02:06:28.360Z,1006.64
2023-04-02T02:07:00.176Z,1006.64
2023-04-02T02:07:30.610Z,1006.53
2023-04-02T02:08:01.856Z,1006.53
2023-04-02T02:08:33.039Z,1006.64
2023-04-02T02:09:03.805Z,1006.84
2023-04-02T02:09:34.488Z,1006.84
2023-04-02T02:10:06.460Z,1006.74
2023-04-02T02:10:35.992Z,1006.74
2023-04-02T02:11:07.738Z,1006.64
2023-04-02T02:11:38.175Z,1006.64
2023-04-02T02:12:10.176Z,1006.53
2023-04-02T02:12:40.009Z,1006.53
2023-04-02T02:13:11.817Z,1006.74
2023-04-02T02:13:42.986Z,1006.74
2023-04-02T02:14:13.787Z,1006.64
2023-04-02T02:14:44.281Z,1006.64
2023-04-02T02:15:16.724Z,1006.74
2023-04-02T02:15:46.048Z,1006.74
2023-04-02T02:16:17.782Z,1006.84
2023-04-02T02:16:48.092Z,1006.84
2023-04-02T02:17:19.820Z,1006.64
2023-04-02T02:17:50.100Z,1006.64
2023-04-02T02:18:21.678Z,1006.74
2023-04-02T02:18:53.468Z,1006.74
2023-04-02T02:19:23.881Z,1006.94
2023-04-02T02:19:54.007Z,1006.94
2023-04-02T02:20:26.680Z,1006.94
2023-04-02T02:20:55.943Z,1006.94
2023-04-02T02:21:27.651Z,1006.53
2023-04-02T02:21:58.152Z,1006.53
2023-04-02T02:22:29.720Z,1006.94
2023-04-02T02:23:00.510Z,1006.94
2023-04-02T02:23:31.659Z,1006.94
2023-04-02T02:24:10.167Z,1006.94
2023-04-02T02:24:34.451Z,1006.74
2023-04-02T02:25:05.138Z,1006.94
2023-04-02T02:25:36.850Z,1006.94
2023-04-02T02:26:05.978Z,1006.74
2023-04-02T02:26:37.791Z,1006.74
2023-04-02T02:27:08.007Z,1006.74
2023-04-02T02:27:39.709Z,1006.74
2023-04-02T02:28:09.959Z,1006.84
2023-04-02T02:28:41.765Z,1006.84
2023-04-02T02:29:12.978Z,1006.84
2023-04-02T02:29:43.759Z,1006.84
2023-04-02T02:30:15.092Z,1006.94
2023-04-02T02:30:46.720Z,1006.94
2023-04-02T02:31:15.956Z,1006.84
2023-04-02T02:31:47.910Z,1006.84
2023-04-02T02:32:18.278Z,1006.84
2023-04-02T02:32:49.732Z,1006.84
2023-04-02T02:33:20.010Z,1006.84
2023-04-02T02:33:51.685Z,1006.84
2023-04-02T02:34:23.050Z,1006.84
2023-04-02T02:34:53.693Z,1006.84
2023-04-02T02:35:24.836Z,1006.84
2023-04-02T02:35:55.695Z,1006.84
2023-04-02T02:36:26.615Z,1006.84
2023-04-02T02:36:58.907Z,1006.84
2023-04-02T02:37:28.311Z,1006.84
2023-04-02T02:37:59.693Z,1006.84
2023-04-02T02:38:30.020Z,1006.94
2023-04-02T02:39:02.290Z,1006.94
2023-04-02T02:39:32.976Z,1006.94
2023-04-02T02:40:05.875Z,1006.84
2023-04-02T02:40:37.967Z,1006.84
2023-04-02T02:41:05.714Z,1006.94
2023-04-02T02:41:36.022Z,1006.94
2023-04-02T02:42:07.683Z,1006.94
2023-04-02T02:42:37.999Z,1006.94
2023-04-02T02:43:10.396Z,1006.84
2023-04-02T02:43:39.945Z,1006.84
2023-04-02T02:44:12.738Z,1007.01
2023-04-02T02:44:42.971Z,1007.01
2023-04-02T02:45:14.944Z,1006.94
2023-04-02T02:45:44.362Z,1006.94
2023-04-02T02:46:15.855Z,1006.94
2023-04-02T02:46:45.961Z,1006.94
2023-04-02T02:47:17.782Z,1006.84
2023-04-02T02:47:48.116Z,1006.84
2023-04-02T02:48:19.811Z,1006.84
2023-04-02T02:48:50.014Z,1006.84
2023-04-02T02:49:21.677Z,1006.94
2023-04-02T02:49:52.980Z,1006.94
2023-04-02T02:50:24.205Z,1006.94
2023-04-02T02:50:54.003Z,1006.94
2023-04-02T02:51:25.658Z,1006.94
2023-04-02T02:51:55.968Z,1006.94
2023-04-02T02:52:28.394Z,1006.84
2023-04-02T02:52:58.154Z,1006.84
2023-04-02T02:53:29.656Z,1007.01
2023-04-02T02:53:59.976Z,1007.01
2023-04-02T02:54:31.752Z,1006.74
2023-04-02T02:55:10.728Z,1006.74
2023-04-02T02:55:33.942Z,1007.01
2023-04-02T02:56:04.311Z,1007.01
2023-04-02T02:56:35.846Z,1007.01
2023-04-02T02:57:06.227Z,1007.11
2023-04-02T02:57:37.749Z,1007.11
2023-04-02T02:58:07.959Z,1006.94
2023-04-02T02:58:39.683Z,1006.94
2023-04-02T02:59:09.994Z,1007.11
2023-04-02T02:59:41.666Z,1007.11
2023-04-02T03:00:14.727Z,1007.11
2023-04-02T03:00:47.235Z,1007.11
2023-04-02T03:01:14.076Z,1007.11
2023-04-02T03:01:45.996Z,1007.11
2023-04-02T03:02:16.139Z,1006.94
2023-04-02T03:02:47.999Z,1006.94
2023-04-02T03:03:18.824Z,1007.11
2023-04-02T03:03:49.856Z,1007.11
2023-04-02T03:04:20.034Z,1006.94
2023-04-02T03:04:51.780Z,1006.94
2023-04-02T03:05:23.643Z,1007.11
2023-04-02T03:05:54.317Z,1007.11
2023-04-02T03:06:24.477Z,1007.42
2023-04-02T03:06:55.780Z,1007.42
2023-04-02T03:07:26.055Z,1007.11
2023-04-02T03:07:57.701Z,1007.11
2023-04-02T03:08:28.183Z,1006.84
2023-04-02T03:08:59.870Z,1006.84
2023-04-02T03:09:29.973Z,1007.11
2023-04-02T03:10:03.197Z,1007.11
2023-04-02T03:10:32.934Z,1007.21
2023-04-02T03:11:03.062Z,1007.31
2023-04-02T03:11:34.710Z,1007.31
2023-04-02T03:12:05.181Z,1007.21
2023-04-02T03:12:38.081Z,1007.21
2023-04-02T03:13:06.987Z,1007.11
2023-04-02T03:13:38.728Z,1007.11
2023-04-02T03:14:08.948Z,1007.01
2023-04-02T03:14:40.911Z,1007.01
2023-04-02T03:15:11.964Z,1007.11
2023-04-02T03:15:43.883Z,1007.11
2023-04-02T03:16:13.021Z,1007.11
2023-04-02T03:16:45.286Z,1007.11
2023-04-02T03:17:14.983Z,1007.11
2023-04-02T03:17:47.361Z,1007.11
2023-04-02T03:18:17.017Z,1007.31
2023-04-02T03:18:48.774Z,1007.31
2023-04-02T03:19:19.099Z,1007.01
2023-04-02T03:19:50.983Z,1007.01
2023-04-02T03:20:21.465Z,1007.21
2023-04-02T03:20:53.657Z,1007.21
2023-04-02T03:21:23.063Z,1007.11
2023-04-02T03:21:54.769Z,1007.11
2023-04-02T03:22:25.127Z,1007.31
2023-04-02T03:22:57.599Z,1007.31
2023-04-02T03:23:27.310Z,1007.11
2023-04-02T03:23:59.030Z,1007.11
2023-04-02T03:24:29.221Z,1007.42
2023-04-02T03:25:01.055Z,1007.42
2023-04-02T03:25:31.625Z,1007.01
2023-04-02T03:26:10.108Z,1007.01
2023-04-02T03:26:33.789Z,1007.31
2023-04-02T03:27:04.624Z,1007.21
2023-04-02T03:27:35.821Z,1007.21
2023-04-02T03:28:06.121Z,1007.21
2023-04-02T03:28:37.762Z,1007.21
2023-04-02T03:29:08.083Z,1007.21
2023-04-02T03:29:39.830Z,1007.21
2023-04-02T03:30:11.821Z,1006.94
2023-04-02T03:30:42.024Z,1006.94
2023-04-02T03:31:13.054Z,1007.31
2023-04-02T03:31:43.717Z,1007.31
2023-04-02T03:32:13.975Z,1007.31
2023-04-02T03:32:46.401Z,1007.31
2023-04-02T03:33:16.251Z,1007.21
2023-04-02T03:33:47.725Z,1007.21
2023-04-02T03:34:17.957Z,1007.11
2023-04-02T03:34:49.691Z,1007.11
2023-04-02T03:35:20.501Z,1007.42
2023-04-02T03:35:51.832Z,1007.42
2023-04-02T03:36:23.049Z,1007.31
2023-04-02T03:36:54.012Z,1007.31
2023-04-02T03:37:24.271Z,1007.11
2023-04-02T03:37:55.635Z,1007.11
2023-04-02T03:38:26.154Z,1007.31
2023-04-02T03:38:57.672Z,1007.31
2023-04-02T03:39:28.143Z,1007.31
2023-04-02T03:39:59.762Z,1007.31
2023-04-02T03:40:39.043Z,1007.42
2023-04-02T03:41:01.680Z,1007.42
2023-04-02T03:41:33.376Z,1007.31
2023-04-02T03:42:03.782Z,1007.42
2023-04-02T03:42:33.971Z,1007.42
2023-04-02T03:43:05.652Z,1007.42
2023-04-02T03:43:36.410Z,1007.42
2023-04-02T03:44:07.806Z,1007.11
2023-04-02T03:44:37.988Z,1007.11
2023-04-02T03:45:11.628Z,1007.21
2023-04-02T03:45:40.045Z,1007.21
2023-04-02T03:46:12.432Z,1007.31
2023-04-02T03:46:43.457Z,1007.31
2023-04-02T03:47:13.874Z,1007.21
2023-04-02T03:47:44.460Z,1007.21
2023-04-02T03:48:15.904Z,1007.31
2023-04-02T03:48:46.023Z,1007.31
2023-04-02T03:49:17.683Z,1007.21
2023-04-02T03:49:47.968Z,1007.21
2023-04-02T03:50:20.962Z,1007.31
2023-04-02T03:50:49.979Z,1007.31
2023-04-02T03:51:21.696Z,1007.42
2023-04-02T03:51:52.985Z,1007.42
2023-04-02T03:52:24.001Z,1007.42
2023-04-02T03:52:54.006Z,1007.42
2023-04-02T03:53:25.750Z,1007.52
2023-04-02T03:53:55.936Z,1007.52
2023-04-02T03:54:27.655Z,1007.42
2023-04-02T03:54:57.957Z,1007.42
2023-04-02T03:55:30.324Z,1007.21
2023-04-02T03:56:00.112Z,1007.21
2023-04-02T03:56:31.693Z,1007.42
2023-04-02T03:57:10.008Z,1007.42
2023-04-02T03:57:33.715Z,1007.52
2023-04-02T03:58:04.283Z,1007.42
2023-04-02T03:58:35.832Z,1007.42
2023-04-02T03:59:06.007Z,1007.62
2023-04-02T03:59:37.751Z,1007.62
2023-04-02T04:00:09.028Z,1007.62
2023-04-02T04:00:46.749Z,1007.62
2023-04-02T04:01:10.139Z,1007.42
2023-04-02T04:01:41.695Z,1007.42
2023-04-02T04:02:13.068Z,1007.42
2023-04-02T04:02:43.762Z,1007.42
2023-04-02T04:03:14.049Z,1007.42
2023-04-02T04:03:46.084Z,1007.42
2023-04-02T04:04:16.034Z,1007.52
2023-04-02T04:04:47.761Z,1007.52
2023-04-02T04:05:18.499Z,1007.52
2023-04-02T04:05:49.908Z,1007.52
2023-04-02T04:06:20.288Z,1007.42
2023-04-02T04:06:51.817Z,1007.42
2023-04-02T04:07:22.977Z,1007.42
2023-04-02T04:07:53.704Z,1007.42
2023-04-02T04:08:24.285Z,1007.21
2023-04-02T04:08:55.694Z,1007.21
2023-04-02T04:09:25.936Z,1007.62
2023-04-02T04:09:57.691Z,1007.62
2023-04-02T04:10:29.314Z,1007.62
2023-04-02T04:10:59.101Z,1007.62
2023-04-02T04:11:30.799Z,1007.62
2023-04-02T04:12:01.154Z,1007.62
2023-04-02T04:12:33.749Z,1007.42
2023-04-02T04:13:03.113Z,1007.52
2023-04-02T04:13:34.670Z,1007.52
2023-04-02T04:14:04.937Z,1007.62
2023-04-02T04:14:36.624Z,1007.62
2023-04-02T04:15:08.018Z,1007.52
2023-04-02T04:15:38.717Z,1007.52
2023-04-02T04:16:08.963Z,1007.62
2023-04-02T04:16:40.894Z,1007.62
2023-04-02T04:17:11.491Z,1007.72
2023-04-02T04:17:43.820Z,1007.72
2023-04-02T04:18:12.958Z,1007.62
2023-04-02T04:18:45.075Z,1007.62
2023-04-02T04:19:15.050Z,1007.62
2023-04-02T04:19:46.714Z,1007.62
2023-04-02T04:20:17.495Z,1007.72
2023-04-02T04:20:48.902Z,1007.72
2023-04-02T04:21:19.025Z,1007.52
2023-04-02T04:21:50.691Z,1007.52
2023-04-02T04:22:21.006Z,1007.72
2023-04-02T04:22:53.659Z,1007.72
2023-04-02T04:23:22.950Z,1007.72
2023-04-02T04:23:55.596Z,1007.72
2023-04-02T04:24:25.051Z,1007.62
2023-04-02T04:24:56.668Z,1007.62
2023-04-02T04:25:27.493Z,1007.82
2023-04-02T04:25:58.989Z,1007.82
2023-04-02T04:26:29.048Z,1007.72
2023-04-02T04:27:01.165Z,1007.72
2023-04-02T04:27:30.968Z,1007.72
2023-04-02T04:28:09.217Z,1007.72
2023-04-02T04:28:34.462Z,1007.82
2023-04-02T04:29:04.443Z,1007.82
2023-04-02T04:29:35.879Z,1007.82
2023-04-02T04:30:07.128Z,1007.72
2023-04-02T04:30:38.210Z,1007.72
2023-04-02T04:31:08.065Z,1008.02
2023-04-02T04:31:39.719Z,1008.02
2023-04-02T04:32:10.199Z,1007.62
2023-04-02T04:32:42.714Z,1007.62
2023-04-02T04:33:13.535Z,1007.72
2023-04-02T04:33:43.679Z,1007.72
2023-04-02T04:34:14.025Z,1007.72
2023-04-02T04:34:45.808Z,1007.72
2023-04-02T04:35:16.500Z,1007.72
2023-04-02T04:35:47.727Z,1007.72
2023-04-02T04:36:18.266Z,1007.82
2023-04-02T04:36:49.682Z,1007.82
2023-04-02T04:37:20.687Z,1007.72
2023-04-02T04:37:51.759Z,1007.72
2023-04-02T04:38:22.996Z,1007.82
2023-04-02T04:38:53.687Z,1007.82
2023-04-02T04:39:24.290Z,1007.92
2023-04-02T04:39:55.788Z,1007.92
2023-04-02T04:40:28.941Z,1008.02
2023-04-02T04:40:57.847Z,1008.02
2023-04-02T04:41:28.165Z,1007.92
2023-04-02T04:41:59.771Z,1007.92
2023-04-02T04:42:30.095Z,1007.82
2023-04-02T04:43:01.960Z,1007.82
2023-04-02T04:43:32.965Z,1007.82
2023-04-02T04:44:04.118Z,1007.92
2023-04-02T04:44:34.007Z,1007.92
2023-04-02T04:45:06.980Z,1007.92
2023-04-02T04:45:36.285Z,1007.92
2023-04-02T04:46:07.744Z,1007.72
2023-04-02T04:46:38.164Z,1007.72
2023-04-02T04:47:09.673Z,1007.92
2023-04-02T04:47:40.108Z,1007.92
2023-04-02T04:48:11.624Z,1007.82
2023-04-02T04:48:42.946Z,1007.82
2023-04-02T04:49:13.652Z,1007.92
2023-04-02T04:49:44.598Z,1007.92
2023-04-02T04:50:16.220Z,1007.92
2023-04-02T04:50:46.581Z,1007.92
2023-04-02T04:51:18.782Z,1008.02
2023-04-02T04:51:47.970Z,1008.02
2023-04-02T04:52:19.695Z,1007.82
2023-04-02T04:52:50.071Z,1007.82
2023-04-02T04:53:21.816Z,1008.02
2023-04-02T04:53:53.012Z,1008.02
2023-04-02T04:54:23.722Z,1008.02
2023-04-02T04:54:54.107Z,1008.02
2023-04-02T04:55:27.272Z,1008.02
2023-04-02T04:55:56.997Z,1008.02
2023-04-02T04:56:27.657Z,1008.23
2023-04-02T04:56:58.011Z,1008.23
2023-04-02T04:57:30.269Z,1008.02
2023-04-02T04:57:59.919Z,1008.02
2023-04-02T04:58:31.660Z,1008.02
2023-04-02T04:59:09.925Z,1008.02
2023-04-02T04:59:34.227Z,1008.02
2023-04-02T05:00:06.990Z,1008.13
2023-04-02T05:00:45.990Z,1008.13
2023-04-02T05:01:06.165Z,1008.02
2023-04-02T05:01:37.087Z,1008.02
2023-04-02T05:02:08.741Z,1008.02
2023-04-02T05:02:39.094Z,1008.02
2023-04-02T05:03:10.649Z,1008.02
2023-04-02T05:03:40.934Z,1008.02
2023-04-02T05:04:13.813Z,1008.23
2023-04-02T05:04:43.248Z,1008.23
2023-04-02T05:05:15.319Z,1008.13
2023-04-02T05:05:44.918Z,1008.13
2023-04-02T05:06:16.771Z,1008.13
2023-04-02T05:06:46.945Z,1008.13
2023-04-02T05:07:18.621Z,1007.82
2023-04-02T05:07:49.182Z,1007.82
2023-04-02T05:08:20.671Z,1008.02
2023-04-02T05:08:50.953Z,1008.02
2023-04-02T05:09:23.678Z,1008.13
2023-04-02T05:09:52.968Z,1008.13
2023-04-02T05:10:26.115Z,1008.13
2023-04-02T05:10:55.646Z,1008.13
2023-04-02T05:11:26.121Z,1008.13
2023-04-02T05:11:57.846Z,1008.13
2023-04-02T05:12:28.118Z,1008.13
2023-04-02T05:12:59.817Z,1008.13
2023-04-02T05:13:30.101Z,1007.92
2023-04-02T05:14:02.582Z,1007.92
2023-04-02T05:14:33.136Z,1007.92
2023-04-02T05:15:05.108Z,1008.02
2023-04-02T05:15:35.287Z,1008.02
2023-04-02T05:16:05.971Z,1008.13
2023-04-02T05:16:36.185Z,1008.13
2023-04-02T05:17:07.896Z,1008.02
2023-04-02T05:17:38.710Z,1008.02
2023-04-02T05:18:09.972Z,1008.23
2023-04-02T05:18:40.159Z,1008.23
2023-04-02T05:19:13.825Z,1008.33
2023-04-02T05:19:43.143Z,1008.33
2023-04-02T05:20:13.800Z,1007.92
2023-04-02T05:20:47.553Z,1007.92
2023-04-02T05:21:15.083Z,1008.13
2023-04-02T05:21:46.833Z,1008.13
2023-04-02T05:22:17.118Z,1008.13
2023-04-02T05:22:48.883Z,1008.13
2023-04-02T05:23:19.255Z,1008.13
2023-04-02T05:23:51.169Z,1008.13
2023-04-02T05:24:21.702Z,1008.23
2023-04-02T05:24:53.920Z,1008.23
2023-04-02T05:25:23.612Z,1008.33
2023-04-02T05:25:54.839Z,1008.33
2023-04-02T05:26:25.171Z,1008.33
2023-04-02T05:26:56.856Z,1008.33
2023-04-02T05:27:27.170Z,1008.33
2023-04-02T05:27:58.999Z,1008.33
2023-04-02T05:28:29.672Z,1008.23
2023-04-02T05:29:00.907Z,1008.23
2023-04-02T05:29:31.137Z,1008.13
2023-04-02T05:30:10.351Z,1008.13
2023-04-02T05:30:34.941Z,1008.13
2023-04-02T05:31:04.968Z,1008.33
2023-04-02T05:31:37.334Z,1008.33
2023-04-02T05:32:06.088Z,1008.33
2023-04-02T05:32:37.987Z,1008.33
2023-04-02T05:33:08.441Z,1008.23
2023-04-02T05:33:39.784Z,1008.23
2023-04-02T05:34:10.091Z,1008.23
2023-04-02T05:34:41.980Z,1008.23
2023-04-02T05:35:13.600Z,1008.33
2023-04-02T05:35:43.802Z,1008.33
2023-04-02T05:36:14.244Z,1008.23
2023-04-02T05:36:46.421Z,1008.23
2023-04-02T05:37:16.093Z,1008.33
2023-04-02T05:37:48.357Z,1008.33
2023-04-02T05:38:18.207Z,1008.33
2023-04-02T05:38:49.835Z,1008.33
2023-04-02T05:39:20.136Z,1008.43
2023-04-02T05:39:51.778Z,1008.43
2023-04-02T05:40:24.176Z,1008.23
2023-04-02T05:40:53.887Z,1008.23
2023-04-02T05:41:24.451Z,1008.43
2023-04-02T05:41:55.980Z,1008.43
2023-04-02T05:42:26.128Z,1008.23
2023-04-02T05:42:57.839Z,1008.23
2023-04-02T05:43:28.107Z,1008.23
2023-04-02T05:43:59.825Z,1008.23
2023-04-02T05:44:30.767Z,1008.43
2023-04-02T05:45:03.154Z,1008.43
2023-04-02T05:45:33.424Z,1008.23
2023-04-02T05:46:04.117Z,1008.33
2023-04-02T05:46:34.341Z,1008.33
2023-04-02T05:47:05.927Z,1008.43
2023-04-02T05:47:36.158Z,1008.43
2023-04-02T05:48:07.938Z,1008.23
2023-04-02T05:48:38.468Z,1008.23
2023-04-02T05:49:09.942Z,1008.43
2023-04-02T05:49:40.131Z,1008.43
2023-04-02T05:50:12.314Z,1008.43
2023-04-02T05:50:43.242Z,1008.43
2023-04-02T05:51:16.131Z,1008.33
2023-04-02T05:51:44.445Z,1008.33
2023-04-02T05:52:15.122Z,1008.33
2023-04-02T05:52:46.871Z,1008.33
2023-04-02T05:53:17.112Z,1008.43
2023-04-02T05:53:49.196Z,1008.43
2023-04-02T05:54:19.208Z,1008.43
2023-04-02T05:54:50.978Z,1008.43
2023-04-02T05:55:22.019Z,1008.43
2023-04-02T05:55:53.819Z,1008.43
2023-04-02T05:56:23.109Z,1008.63
2023-04-02T05:56:54.964Z,1008.63
2023-04-02T05:57:35.847Z,1008.43
2023-04-02T05:58:17.675Z,1008.43
2023-04-02T05:58:35.620Z,1008.33
2023-04-02T05:58:59.792Z,1008.33
2023-04-02T05:59:29.207Z,1008.33
2023-04-02T06:00:01.665Z,1008.33
2023-04-02T06:00:32.010Z,1008.43
2023-04-02T06:01:13.609Z,1008.43
2023-04-02T06:01:33.775Z,1008.33
2023-04-02T06:02:04.433Z,1008.53
2023-04-02T06:02:35.870Z,1008.53
2023-04-02T06:03:06.224Z,1008.53
2023-04-02T06:03:37.878Z,1008.53
2023-04-02T06:04:08.383Z,1008.43
2023-04-02T06:04:40.467Z,1008.43
2023-04-02T06:05:10.633Z,1008.63
2023-04-02T06:05:42.096Z,1008.63
2023-04-02T06:06:14.644Z,1008.53
2023-04-02T06:06:43.815Z,1008.53
2023-04-02T06:07:14.086Z,1008.53
2023-04-02T06:07:49.861Z,1008.53
2023-04-02T06:08:16.128Z,1008.53
2023-04-02T06:08:47.441Z,1008.53
2023-04-02T06:09:18.837Z,1008.63
2023-04-02T06:09:49.110Z,1008.63
2023-04-02T06:10:24.135Z,1008.74
2023-04-02T06:10:51.225Z,1008.74
2023-04-02T06:11:23.456Z,1008.74
2023-04-02T06:11:53.867Z,1008.74
2023-04-02T06:12:24.414Z,1008.74
2023-04-02T06:12:57.020Z,1008.74
2023-04-02T06:13:26.103Z,1008.63
2023-04-02T06:13:57.801Z,1008.63
2023-04-02T06:14:28.029Z,1008.84
2023-04-02T06:14:59.771Z,1008.84